sensor_id;sensor_type;location;lat;lon;timestamp;P1;durP1;ratioP1;P2;durP2;ratioP2
14121;SDS011;7139;48.114;11.442;2023-07-08T00:00:38;8.67;;;7.57;;
14121;SDS011;7139;48.114;11.442;2023-07-08T00:03:05;7.87;;;7.10;;
14121;SDS011;7139;48.114;11.442;2023-07-08T00:05:32;10.17;;;7.77;;
14121;SDS011;7139;48.114;11.442;2023-07-08T00:08:00;9.10;;;7.43;;
14121;SDS011;7139;48.114;11.442;2023-07-08T00:10:27;8.30;;;7.30;;
14121;SDS011;7139;48.114;11.442;2023-07-08T00:12:55;11.17;;;7.90;;
14121;SDS011;7139;48.114;11.442;2023-07-08T00:15:24;9.93;;;7.60;;
14121;SDS011;7139;48.114;11.442;2023-07-08T00:17:52;8.87;;;7.67;;
14121;SDS011;7139;48.114;11.442;2023-07-08T00:20:20;9.10;;;7.77;;
14121;SDS011;7139;48.114;11.442;2023-07-08T00:22:54;7.80;;;7.00;;
14121;SDS011;7139;48.114;11.442;2023-07-08T00:25:23;9.63;;;7.83;;
14121;SDS011;7139;48.114;11.442;2023-07-08T00:27:50;10.13;;;8.00;;
14121;SDS011;7139;48.114;11.442;2023-07-08T00:30:20;10.40;;;7.83;;
14121;SDS011;7139;48.114;11.442;2023-07-08T00:32:48;8.93;;;8.03;;
14121;SDS011;7139;48.114;11.442;2023-07-08T00:35:19;9.67;;;8.17;;
14121;SDS011;7139;48.114;11.442;2023-07-08T00:37:47;9.30;;;7.80;;
14121;SDS011;7139;48.114;11.442;2023-07-08T00:40:15;12.03;;;8.40;;
14121;SDS011;7139;48.114;11.442;2023-07-08T00:42:45;9.63;;;8.60;;
14121;SDS011;7139;48.114;11.442;2023-07-08T00:45:20;8.93;;;7.90;;
14121;SDS011;7139;48.114;11.442;2023-07-08T00:47:56;8.80;;;7.80;;
14121;SDS011;7139;48.114;11.442;2023-07-08T00:50:28;9.30;;;8.03;;
14121;SDS011;7139;48.114;11.442;2023-07-08T00:55:47;8.70;;;7.77;;
14121;SDS011;7139;48.114;11.442;2023-07-08T00:58:16;11.00;;;8.27;;
14121;SDS011;7139;48.114;11.442;2023-07-08T01:00:45;8.93;;;7.80;;
14121;SDS011;7139;48.114;11.442;2023-07-08T01:03:15;8.57;;;7.70;;
14121;SDS011;7139;48.114;11.442;2023-07-08T01:05:43;8.90;;;8.00;;
14121;SDS011;7139;48.114;11.442;2023-07-08T01:08:11;9.17;;;8.17;;
14121;SDS011;7139;48.114;11.442;2023-07-08T01:10:39;9.43;;;7.87;;
14121;SDS011;7139;48.114;11.442;2023-07-08T01:13:09;9.87;;;8.10;;
14121;SDS011;7139;48.114;11.442;2023-07-08T01:15:39;9.83;;;8.50;;
14121;SDS011;7139;48.114;11.442;2023-07-08T01:18:08;8.40;;;7.40;;
14121;SDS011;7139;48.114;11.442;2023-07-08T01:20:36;9.40;;;8.10;;
14121;SDS011;7139;48.114;11.442;2023-07-08T01:23:04;10.37;;;8.13;;
14121;SDS011;7139;48.114;11.442;2023-07-08T01:25:31;8.97;;;7.63;;
14121;SDS011;7139;48.114;11.442;2023-07-08T01:27:58;12.00;;;8.20;;
14121;SDS011;7139;48.114;11.442;2023-07-08T01:30:25;9.33;;;7.53;;
14121;SDS011;7139;48.114;11.442;2023-07-08T01:32:54;9.53;;;7.97;;
14121;SDS011;7139;48.114;11.442;2023-07-08T01:35:25;10.13;;;8.10;;
14121;SDS011;7139;48.114;11.442;2023-07-08T01:37:53;9.63;;;8.37;;
14121;SDS011;7139;48.114;11.442;2023-07-08T01:40:25;9.60;;;7.77;;
14121;SDS011;7139;48.114;11.442;2023-07-08T01:42:53;8.73;;;7.60;;
14121;SDS011;7139;48.114;11.442;2023-07-08T01:45:21;9.30;;;8.10;;
14121;SDS011;7139;48.114;11.442;2023-07-08T01:47:50;8.90;;;7.57;;
14121;SDS011;7139;48.114;11.442;2023-07-08T01:50:20;9.20;;;7.53;;
14121;SDS011;7139;48.114;11.442;2023-07-08T01:52:48;10.37;;;7.97;;
14121;SDS011;7139;48.114;11.442;2023-07-08T01:55:20;10.23;;;8.57;;
14121;SDS011;7139;48.114;11.442;2023-07-08T01:57:48;8.97;;;7.63;;
14121;SDS011;7139;48.114;11.442;2023-07-08T02:00:17;10.30;;;7.93;;
14121;SDS011;7139;48.114;11.442;2023-07-08T02:02:44;10.93;;;7.83;;
14121;SDS011;7139;48.114;11.442;2023-07-08T02:05:11;9.87;;;8.50;;
14121;SDS011;7139;48.114;11.442;2023-07-08T02:07:38;11.93;;;7.80;;
14121;SDS011;7139;48.114;11.442;2023-07-08T02:10:05;9.10;;;8.03;;
14121;SDS011;7139;48.114;11.442;2023-07-08T02:12:32;9.90;;;7.93;;
14121;SDS011;7139;48.114;11.442;2023-07-08T02:15:00;8.80;;;7.87;;
14121;SDS011;7139;48.114;11.442;2023-07-08T02:17:28;8.07;;;7.17;;
14121;SDS011;7139;48.114;11.442;2023-07-08T02:19:55;9.13;;;7.90;;
14121;SDS011;7139;48.114;11.442;2023-07-08T02:22:22;10.10;;;7.77;;
14121;SDS011;7139;48.114;11.442;2023-07-08T02:24:49;9.60;;;8.13;;
14121;SDS011;7139;48.114;11.442;2023-07-08T02:27:16;9.43;;;7.83;;
14121;SDS011;7139;48.114;11.442;2023-07-08T02:29:43;9.60;;;7.93;;
14121;SDS011;7139;48.114;11.442;2023-07-08T02:32:11;9.67;;;7.77;;
14121;SDS011;7139;48.114;11.442;2023-07-08T02:34:37;11.03;;;7.90;;
14121;SDS011;7139;48.114;11.442;2023-07-08T02:37:04;9.40;;;8.13;;
14121;SDS011;7139;48.114;11.442;2023-07-08T02:39:32;10.90;;;8.07;;
14121;SDS011;7139;48.114;11.442;2023-07-08T02:41:59;9.90;;;7.90;;
14121;SDS011;7139;48.114;11.442;2023-07-08T02:44:26;10.33;;;8.20;;
14121;SDS011;7139;48.114;11.442;2023-07-08T02:46:52;11.47;;;8.77;;
14121;SDS011;7139;48.114;11.442;2023-07-08T02:49:20;10.27;;;8.53;;
14121;SDS011;7139;48.114;11.442;2023-07-08T02:51:47;11.27;;;8.17;;
14121;SDS011;7139;48.114;11.442;2023-07-08T02:54:14;11.50;;;8.20;;
14121;SDS011;7139;48.114;11.442;2023-07-08T02:56:41;9.33;;;8.30;;
14121;SDS011;7139;48.114;11.442;2023-07-08T02:59:07;9.90;;;8.70;;
14121;SDS011;7139;48.114;11.442;2023-07-08T03:01:34;10.90;;;8.30;;
14121;SDS011;7139;48.114;11.442;2023-07-08T03:04:06;10.20;;;8.40;;
14121;SDS011;7139;48.114;11.442;2023-07-08T03:06:35;9.57;;;8.07;;
14121;SDS011;7139;48.114;11.442;2023-07-08T03:09:01;9.93;;;8.07;;
14121;SDS011;7139;48.114;11.442;2023-07-08T03:11:28;10.53;;;8.10;;
14121;SDS011;7139;48.114;11.442;2023-07-08T03:13:55;9.47;;;8.20;;
14121;SDS011;7139;48.114;11.442;2023-07-08T03:16:22;9.40;;;7.43;;
14121;SDS011;7139;48.114;11.442;2023-07-08T03:18:48;8.90;;;8.00;;
14121;SDS011;7139;48.114;11.442;2023-07-08T03:21:16;9.27;;;7.70;;
14121;SDS011;7139;48.114;11.442;2023-07-08T03:23:45;9.77;;;7.77;;
14121;SDS011;7139;48.114;11.442;2023-07-08T03:26:13;9.27;;;8.27;;
14121;SDS011;7139;48.114;11.442;2023-07-08T03:28:41;11.30;;;8.17;;
14121;SDS011;7139;48.114;11.442;2023-07-08T03:31:08;8.47;;;7.57;;
14121;SDS011;7139;48.114;11.442;2023-07-08T03:33:36;8.00;;;7.20;;
14121;SDS011;7139;48.114;11.442;2023-07-08T03:36:03;10.50;;;7.87;;
14121;SDS011;7139;48.114;11.442;2023-07-08T03:38:30;10.77;;;8.13;;
14121;SDS011;7139;48.114;11.442;2023-07-08T03:40:59;9.67;;;7.80;;
14121;SDS011;7139;48.114;11.442;2023-07-08T03:43:25;9.67;;;7.63;;
14121;SDS011;7139;48.114;11.442;2023-07-08T03:45:52;10.37;;;8.03;;
14121;SDS011;7139;48.114;11.442;2023-07-08T03:48:19;9.37;;;7.70;;
14121;SDS011;7139;48.114;11.442;2023-07-08T03:50:45;9.83;;;8.03;;
14121;SDS011;7139;48.114;11.442;2023-07-08T03:53:12;8.87;;;7.73;;
14121;SDS011;7139;48.114;11.442;2023-07-08T03:55:39;11.20;;;7.60;;
14121;SDS011;7139;48.114;11.442;2023-07-08T03:58:07;8.63;;;7.73;;
14121;SDS011;7139;48.114;11.442;2023-07-08T04:00:34;9.27;;;7.77;;
14121;SDS011;7139;48.114;11.442;2023-07-08T04:03:01;9.23;;;7.77;;
14121;SDS011;7139;48.114;11.442;2023-07-08T04:05:28;9.17;;;8.07;;
14121;SDS011;7139;48.114;11.442;2023-07-08T04:07:55;8.50;;;7.67;;
14121;SDS011;7139;48.114;11.442;2023-07-08T04:10:22;9.07;;;8.13;;
14121;SDS011;7139;48.114;11.442;2023-07-08T04:12:48;11.20;;;8.47;;
14121;SDS011;7139;48.114;11.442;2023-07-08T04:15:16;10.27;;;8.27;;
14121;SDS011;7139;48.114;11.442;2023-07-08T04:17:44;8.10;;;7.23;;
14121;SDS011;7139;48.114;11.442;2023-07-08T04:20:15;9.30;;;7.90;;
14121;SDS011;7139;48.114;11.442;2023-07-08T04:22:43;9.20;;;7.53;;
14121;SDS011;7139;48.114;11.442;2023-07-08T04:25:10;9.07;;;8.00;;
14121;SDS011;7139;48.114;11.442;2023-07-08T04:27:38;8.83;;;7.80;;
14121;SDS011;7139;48.114;11.442;2023-07-08T04:30:06;9.70;;;8.13;;
14121;SDS011;7139;48.114;11.442;2023-07-08T04:32:42;9.27;;;8.27;;
14121;SDS011;7139;48.114;11.442;2023-07-08T04:35:09;12.80;;;8.40;;
14121;SDS011;7139;48.114;11.442;2023-07-08T04:37:36;10.33;;;8.27;;
14121;SDS011;7139;48.114;11.442;2023-07-08T04:40:03;9.90;;;7.63;;
14121;SDS011;7139;48.114;11.442;2023-07-08T04:42:32;9.50;;;8.13;;
14121;SDS011;7139;48.114;11.442;2023-07-08T04:44:59;8.80;;;7.73;;
14121;SDS011;7139;48.114;11.442;2023-07-08T04:47:29;9.00;;;8.10;;
14121;SDS011;7139;48.114;11.442;2023-07-08T04:50:00;9.17;;;8.20;;
14121;SDS011;7139;48.114;11.442;2023-07-08T04:52:27;9.20;;;8.10;;
14121;SDS011;7139;48.114;11.442;2023-07-08T04:54:53;8.73;;;7.77;;
14121;SDS011;7139;48.114;11.442;2023-07-08T04:57:20;11.37;;;8.20;;
14121;SDS011;7139;48.114;11.442;2023-07-08T04:59:47;9.67;;;8.30;;
14121;SDS011;7139;48.114;11.442;2023-07-08T05:02:13;9.60;;;8.50;;
14121;SDS011;7139;48.114;11.442;2023-07-08T05:04:40;9.73;;;8.27;;
14121;SDS011;7139;48.114;11.442;2023-07-08T05:07:08;11.47;;;8.60;;
14121;SDS011;7139;48.114;11.442;2023-07-08T05:09:35;9.43;;;8.43;;
14121;SDS011;7139;48.114;11.442;2023-07-08T05:12:02;8.63;;;7.73;;
14121;SDS011;7139;48.114;11.442;2023-07-08T05:14:29;9.83;;;8.40;;
14121;SDS011;7139;48.114;11.442;2023-07-08T05:16:56;9.97;;;8.10;;
14121;SDS011;7139;48.114;11.442;2023-07-08T05:19:23;10.33;;;8.10;;
14121;SDS011;7139;48.114;11.442;2023-07-08T05:21:50;8.90;;;7.97;;
14121;SDS011;7139;48.114;11.442;2023-07-08T05:24:19;10.53;;;8.90;;
14121;SDS011;7139;48.114;11.442;2023-07-08T05:26:46;10.60;;;8.80;;
14121;SDS011;7139;48.114;11.442;2023-07-08T05:29:13;9.50;;;8.50;;
14121;SDS011;7139;48.114;11.442;2023-07-08T05:31:40;9.93;;;8.00;;
14121;SDS011;7139;48.114;11.442;2023-07-08T05:34:06;9.03;;;8.10;;
14121;SDS011;7139;48.114;11.442;2023-07-08T05:36:33;10.77;;;8.53;;
14121;SDS011;7139;48.114;11.442;2023-07-08T05:39:00;10.03;;;8.80;;
14121;SDS011;7139;48.114;11.442;2023-07-08T05:41:28;9.93;;;8.60;;
14121;SDS011;7139;48.114;11.442;2023-07-08T05:43:55;10.47;;;8.57;;
14121;SDS011;7139;48.114;11.442;2023-07-08T05:46:21;9.80;;;8.80;;
14121;SDS011;7139;48.114;11.442;2023-07-08T05:48:48;9.90;;;8.90;;
14121;SDS011;7139;48.114;11.442;2023-07-08T05:51:16;10.17;;;8.97;;
14121;SDS011;7139;48.114;11.442;2023-07-08T05:53:42;9.90;;;8.20;;
14121;SDS011;7139;48.114;11.442;2023-07-08T05:56:09;9.60;;;8.60;;
14121;SDS011;7139;48.114;11.442;2023-07-08T05:58:37;9.73;;;8.57;;
14121;SDS011;7139;48.114;11.442;2023-07-08T06:01:04;9.47;;;8.20;;
14121;SDS011;7139;48.114;11.442;2023-07-08T06:03:31;9.10;;;8.17;;
14121;SDS011;7139;48.114;11.442;2023-07-08T06:05:57;11.47;;;9.20;;
14121;SDS011;7139;48.114;11.442;2023-07-08T06:08:24;11.40;;;8.57;;
14121;SDS011;7139;48.114;11.442;2023-07-08T06:10:51;10.20;;;9.07;;
14121;SDS011;7139;48.114;11.442;2023-07-08T06:13:18;11.93;;;8.40;;
14121;SDS011;7139;48.114;11.442;2023-07-08T06:15:46;11.03;;;8.80;;
14121;SDS011;7139;48.114;11.442;2023-07-08T06:18:12;9.77;;;8.63;;
14121;SDS011;7139;48.114;11.442;2023-07-08T06:20:39;10.90;;;8.93;;
14121;SDS011;7139;48.114;11.442;2023-07-08T06:23:06;10.27;;;8.80;;
14121;SDS011;7139;48.114;11.442;2023-07-08T06:25:33;10.57;;;8.53;;
14121;SDS011;7139;48.114;11.442;2023-07-08T06:27:59;12.20;;;8.60;;
14121;SDS011;7139;48.114;11.442;2023-07-08T06:30:26;10.07;;;9.07;;
14121;SDS011;7139;48.114;11.442;2023-07-08T06:32:54;9.67;;;8.67;;
14121;SDS011;7139;48.114;11.442;2023-07-08T06:35:21;12.13;;;9.07;;
14121;SDS011;7139;48.114;11.442;2023-07-08T06:37:48;11.00;;;9.63;;
14121;SDS011;7139;48.114;11.442;2023-07-08T06:40:15;10.10;;;8.77;;
14121;SDS011;7139;48.114;11.442;2023-07-08T06:42:42;9.40;;;8.50;;
14121;SDS011;7139;48.114;11.442;2023-07-08T06:45:09;10.83;;;8.43;;
14121;SDS011;7139;48.114;11.442;2023-07-08T06:47:36;9.40;;;8.40;;
14121;SDS011;7139;48.114;11.442;2023-07-08T06:50:05;11.70;;;8.90;;
14121;SDS011;7139;48.114;11.442;2023-07-08T06:52:33;9.40;;;8.27;;
14121;SDS011;7139;48.114;11.442;2023-07-08T06:55:02;9.93;;;8.33;;
14121;SDS011;7139;48.114;11.442;2023-07-08T06:57:30;9.10;;;8.07;;
14121;SDS011;7139;48.114;11.442;2023-07-08T06:59:57;11.13;;;8.87;;
14121;SDS011;7139;48.114;11.442;2023-07-08T07:02:24;9.43;;;8.43;;
14121;SDS011;7139;48.114;11.442;2023-07-08T07:04:51;9.83;;;8.83;;
14121;SDS011;7139;48.114;11.442;2023-07-08T07:07:19;9.80;;;8.80;;
14121;SDS011;7139;48.114;11.442;2023-07-08T07:09:46;9.37;;;8.37;;
14121;SDS011;7139;48.114;11.442;2023-07-08T07:12:13;10.20;;;8.17;;
14121;SDS011;7139;48.114;11.442;2023-07-08T07:14:39;8.80;;;7.90;;
14121;SDS011;7139;48.114;11.442;2023-07-08T07:17:06;9.53;;;8.53;;
14121;SDS011;7139;48.114;11.442;2023-07-08T07:19:33;12.13;;;8.63;;
14121;SDS011;7139;48.114;11.442;2023-07-08T07:22:00;10.23;;;8.87;;
14121;SDS011;7139;48.114;11.442;2023-07-08T07:24:28;11.50;;;8.30;;
14121;SDS011;7139;48.114;11.442;2023-07-08T07:26:54;12.63;;;8.53;;
14121;SDS011;7139;48.114;11.442;2023-07-08T07:29:21;9.67;;;8.10;;
14121;SDS011;7139;48.114;11.442;2023-07-08T07:31:49;9.77;;;8.77;;
14121;SDS011;7139;48.114;11.442;2023-07-08T07:34:16;10.60;;;8.50;;
14121;SDS011;7139;48.114;11.442;2023-07-08T07:36:43;9.97;;;8.20;;
14121;SDS011;7139;48.114;11.442;2023-07-08T07:39:10;9.10;;;8.20;;
14121;SDS011;7139;48.114;11.442;2023-07-08T07:41:38;9.20;;;8.30;;
14121;SDS011;7139;48.114;11.442;2023-07-08T07:44:05;9.50;;;8.50;;
14121;SDS011;7139;48.114;11.442;2023-07-08T07:46:32;10.60;;;8.80;;
14121;SDS011;7139;48.114;11.442;2023-07-08T07:48:58;9.45;;;8.40;;
14121;SDS011;7139;48.114;11.442;2023-07-08T07:51:25;9.38;;;8.38;;
14121;SDS011;7139;48.114;11.442;2023-07-08T07:53:52;9.70;;;8.70;;
14121;SDS011;7139;48.114;11.442;2023-07-08T07:56:19;9.23;;;8.32;;
14121;SDS011;7139;48.114;11.442;2023-07-08T07:58:47;9.85;;;8.75;;
14121;SDS011;7139;48.114;11.442;2023-07-08T08:01:14;9.50;;;8.57;;
14121;SDS011;7139;48.114;11.442;2023-07-08T08:03:41;10.40;;;8.80;;
14121;SDS011;7139;48.114;11.442;2023-07-08T08:06:08;10.25;;;8.63;;
14121;SDS011;7139;48.114;11.442;2023-07-08T08:08:34;9.27;;;8.38;;
14121;SDS011;7139;48.114;11.442;2023-07-08T08:11:01;10.25;;;8.32;;
14121;SDS011;7139;48.114;11.442;2023-07-08T08:13:28;10.15;;;9.13;;
14121;SDS011;7139;48.114;11.442;2023-07-08T08:15:57;10.82;;;8.50;;
14121;SDS011;7139;48.114;11.442;2023-07-08T08:18:23;9.77;;;8.27;;
14121;SDS011;7139;48.114;11.442;2023-07-08T08:20:50;9.75;;;8.48;;
14121;SDS011;7139;48.114;11.442;2023-07-08T08:23:17;10.23;;;8.60;;
14121;SDS011;7139;48.114;11.442;2023-07-08T08:25:44;8.07;;;7.28;;
14121;SDS011;7139;48.114;11.442;2023-07-08T08:28:11;10.15;;;8.30;;
14121;SDS011;7139;48.114;11.442;2023-07-08T08:30:38;9.50;;;7.90;;
14121;SDS011;7139;48.114;11.442;2023-07-08T08:33:06;10.32;;;7.90;;
14121;SDS011;7139;48.114;11.442;2023-07-08T08:35:33;10.80;;;8.70;;
14121;SDS011;7139;48.114;11.442;2023-07-08T08:37:59;8.95;;;7.97;;
14121;SDS011;7139;48.114;11.442;2023-07-08T08:40:28;9.45;;;8.00;;
14121;SDS011;7139;48.114;11.442;2023-07-08T08:42:57;9.02;;;8.00;;
14121;SDS011;7139;48.114;11.442;2023-07-08T08:45:28;10.68;;;8.32;;
14121;SDS011;7139;48.114;11.442;2023-07-08T08:47:58;9.05;;;8.13;;
14121;SDS011;7139;48.114;11.442;2023-07-08T08:50:30;10.40;;;8.30;;
14121;SDS011;7139;48.114;11.442;2023-07-08T08:53:01;9.15;;;7.95;;
14121;SDS011;7139;48.114;11.442;2023-07-08T08:55:29;9.68;;;8.15;;
14121;SDS011;7139;48.114;11.442;2023-07-08T08:57:59;9.18;;;8.15;;
14121;SDS011;7139;48.114;11.442;2023-07-08T09:00:40;10.30;;;8.75;;
14121;SDS011;7139;48.114;11.442;2023-07-08T09:03:12;10.10;;;8.25;;
14121;SDS011;7139;48.114;11.442;2023-07-08T09:05:44;9.70;;;8.30;;
14121;SDS011;7139;48.114;11.442;2023-07-08T09:08:12;9.55;;;8.55;;
14121;SDS011;7139;48.114;11.442;2023-07-08T09:10:43;10.95;;;8.57;;
14121;SDS011;7139;48.114;11.442;2023-07-08T09:13:15;9.35;;;8.43;;
14121;SDS011;7139;48.114;11.442;2023-07-08T09:15:47;9.38;;;8.45;;
14121;SDS011;7139;48.114;11.442;2023-07-08T09:18:20;10.48;;;7.97;;
14121;SDS011;7139;48.114;11.442;2023-07-08T09:20:55;9.57;;;8.45;;
14121;SDS011;7139;48.114;11.442;2023-07-08T09:23:23;9.52;;;8.23;;
14121;SDS011;7139;48.114;11.442;2023-07-08T09:25:54;9.88;;;8.88;;
14121;SDS011;7139;48.114;11.442;2023-07-08T09:28:34;10.18;;;7.95;;
14121;SDS011;7139;48.114;11.442;2023-07-08T09:31:03;10.05;;;8.07;;
14121;SDS011;7139;48.114;11.442;2023-07-08T09:33:33;8.73;;;7.82;;
14121;SDS011;7139;48.114;11.442;2023-07-08T09:36:05;8.90;;;7.95;;
14121;SDS011;7139;48.114;11.442;2023-07-08T09:38:43;8.82;;;7.80;;
14121;SDS011;7139;48.114;11.442;2023-07-08T09:41:13;9.68;;;8.02;;
14121;SDS011;7139;48.114;11.442;2023-07-08T09:43:40;10.25;;;7.70;;
14121;SDS011;7139;48.114;11.442;2023-07-08T09:46:08;9.63;;;8.35;;
14121;SDS011;7139;48.114;11.442;2023-07-08T09:48:38;9.35;;;7.85;;
14121;SDS011;7139;48.114;11.442;2023-07-08T09:51:06;8.15;;;7.35;;
14121;SDS011;7139;48.114;11.442;2023-07-08T09:53:34;8.85;;;7.32;;
14121;SDS011;7139;48.114;11.442;2023-07-08T09:56:02;9.57;;;7.85;;
14121;SDS011;7139;48.114;11.442;2023-07-08T09:58:30;10.45;;;7.72;;
14121;SDS011;7139;48.114;11.442;2023-07-08T10:01:05;9.10;;;6.65;;
14121;SDS011;7139;48.114;11.442;2023-07-08T10:03:37;8.00;;;6.63;;
14121;SDS011;7139;48.114;11.442;2023-07-08T10:06:05;8.05;;;6.50;;
14121;SDS011;7139;48.114;11.442;2023-07-08T10:08:42;8.55;;;6.78;;
14121;SDS011;7139;48.114;11.442;2023-07-08T10:11:12;9.30;;;6.30;;
14121;SDS011;7139;48.114;11.442;2023-07-08T10:13:49;7.70;;;6.90;;
14121;SDS011;7139;48.114;11.442;2023-07-08T10:16:21;8.40;;;7.10;;
14121;SDS011;7139;48.114;11.442;2023-07-08T10:18:50;7.47;;;6.40;;
14121;SDS011;7139;48.114;11.442;2023-07-08T10:21:22;7.78;;;6.28;;
14121;SDS011;7139;48.114;11.442;2023-07-08T10:23:58;7.80;;;7.00;;
14121;SDS011;7139;48.114;11.442;2023-07-08T10:26:40;7.13;;;6.35;;
14121;SDS011;7139;48.114;11.442;2023-07-08T10:29:11;6.93;;;5.80;;
14121;SDS011;7139;48.114;11.442;2023-07-08T10:31:56;7.57;;;6.13;;
14121;SDS011;7139;48.114;11.442;2023-07-08T10:34:34;6.88;;;6.18;;
14121;SDS011;7139;48.114;11.442;2023-07-08T10:37:10;8.15;;;6.20;;
14121;SDS011;7139;48.114;11.442;2023-07-08T10:39:49;7.38;;;6.47;;
14121;SDS011;7139;48.114;11.442;2023-07-08T10:42:27;7.47;;;6.60;;
14121;SDS011;7139;48.114;11.442;2023-07-08T10:45:13;8.10;;;6.45;;
14121;SDS011;7139;48.114;11.442;2023-07-08T10:47:46;7.55;;;6.18;;
14121;SDS011;7139;48.114;11.442;2023-07-08T10:50:28;6.10;;;5.50;;
14121;SDS011;7139;48.114;11.442;2023-07-08T10:53:17;8.70;;;6.30;;
14121;SDS011;7139;48.114;11.442;2023-07-08T10:55:57;6.65;;;5.88;;
14121;SDS011;7139;48.114;11.442;2023-07-08T10:58:33;7.60;;;6.85;;
14121;SDS011;7139;48.114;11.442;2023-07-08T11:01:10;9.77;;;7.05;;
14121;SDS011;7139;48.114;11.442;2023-07-08T11:03:51;6.88;;;6.18;;
14121;SDS011;7139;48.114;11.442;2023-07-08T11:06:40;6.88;;;6.07;;
14121;SDS011;7139;48.114;11.442;2023-07-08T11:09:15;7.53;;;6.50;;
14121;SDS011;7139;48.114;11.442;2023-07-08T11:11:48;8.43;;;6.55;;
14121;SDS011;7139;48.114;11.442;2023-07-08T11:14:20;9.13;;;6.63;;
14121;SDS011;7139;48.114;11.442;2023-07-08T11:16:52;8.93;;;6.57;;
14121;SDS011;7139;48.114;11.442;2023-07-08T11:19:26;7.78;;;6.97;;
14121;SDS011;7139;48.114;11.442;2023-07-08T11:21:59;8.38;;;7.10;;
14121;SDS011;7139;48.114;11.442;2023-07-08T11:24:31;7.88;;;6.97;;
14121;SDS011;7139;48.114;11.442;2023-07-08T11:27:06;7.97;;;6.60;;
14121;SDS011;7139;48.114;11.442;2023-07-08T11:29:45;7.82;;;6.63;;
14121;SDS011;7139;48.114;11.442;2023-07-08T11:32:16;7.00;;;6.28;;
14121;SDS011;7139;48.114;11.442;2023-07-08T11:34:44;6.82;;;6.03;;
14121;SDS011;7139;48.114;11.442;2023-07-08T11:37:14;8.80;;;6.72;;
14121;SDS011;7139;48.114;11.442;2023-07-08T11:39:45;8.18;;;6.55;;
14121;SDS011;7139;48.114;11.442;2023-07-08T11:42:16;7.15;;;6.50;;
14121;SDS011;7139;48.114;11.442;2023-07-08T11:44:47;9.35;;;6.53;;
14121;SDS011;7139;48.114;11.442;2023-07-08T11:47:18;8.77;;;6.70;;
14121;SDS011;7139;48.114;11.442;2023-07-08T11:49:50;7.57;;;6.07;;
14121;SDS011;7139;48.114;11.442;2023-07-08T11:52:20;7.15;;;6.45;;
14121;SDS011;7139;48.114;11.442;2023-07-08T11:54:54;6.97;;;6.10;;
14121;SDS011;7139;48.114;11.442;2023-07-08T11:57:28;8.73;;;6.20;;
14121;SDS011;7139;48.114;11.442;2023-07-08T12:00:10;8.27;;;6.25;;
14121;SDS011;7139;48.114;11.442;2023-07-08T12:02:47;9.13;;;6.18;;
14121;SDS011;7139;48.114;11.442;2023-07-08T12:05:30;7.28;;;5.90;;
14121;SDS011;7139;48.114;11.442;2023-07-08T12:07:58;9.75;;;6.65;;
14121;SDS011;7139;48.114;11.442;2023-07-08T12:10:31;7.53;;;6.72;;
14121;SDS011;7139;48.114;11.442;2023-07-08T12:13:00;8.00;;;6.55;;
14121;SDS011;7139;48.114;11.442;2023-07-08T12:15:29;7.70;;;6.95;;
14121;SDS011;7139;48.114;11.442;2023-07-08T12:17:58;7.88;;;6.50;;
14121;SDS011;7139;48.114;11.442;2023-07-08T12:20:29;7.63;;;6.70;;
14121;SDS011;7139;48.114;11.442;2023-07-08T12:22:57;8.27;;;6.78;;
14121;SDS011;7139;48.114;11.442;2023-07-08T12:25:26;7.95;;;6.93;;
14121;SDS011;7139;48.114;11.442;2023-07-08T12:27:57;7.80;;;7.00;;
14121;SDS011;7139;48.114;11.442;2023-07-08T12:30:25;14.18;;;12.77;;
14121;SDS011;7139;48.114;11.442;2023-07-08T12:32:54;8.00;;;7.28;;
14121;SDS011;7139;48.114;11.442;2023-07-08T12:35:26;9.48;;;8.45;;
14121;SDS011;7139;48.114;11.442;2023-07-08T12:37:56;7.88;;;7.07;;
14121;SDS011;7139;48.114;11.442;2023-07-08T12:40:26;7.55;;;6.32;;
14121;SDS011;7139;48.114;11.442;2023-07-08T12:42:53;7.68;;;6.10;;
14121;SDS011;7139;48.114;11.442;2023-07-08T12:45:23;7.25;;;6.40;;
14121;SDS011;7139;48.114;11.442;2023-07-08T12:47:51;7.47;;;6.30;;
14121;SDS011;7139;48.114;11.442;2023-07-08T12:50:18;9.45;;;6.75;;
14121;SDS011;7139;48.114;11.442;2023-07-08T12:52:45;7.43;;;6.70;;
14121;SDS011;7139;48.114;11.442;2023-07-08T12:55:14;8.13;;;6.57;;
14121;SDS011;7139;48.114;11.442;2023-07-08T12:57:42;7.15;;;6.38;;
14121;SDS011;7139;48.114;11.442;2023-07-08T13:00:12;7.95;;;6.15;;
14121;SDS011;7139;48.114;11.442;2023-07-08T13:02:45;6.20;;;5.60;;
14121;SDS011;7139;48.114;11.442;2023-07-08T13:05:14;7.07;;;6.38;;
14121;SDS011;7139;48.114;11.442;2023-07-08T13:07:41;6.60;;;6.00;;
14121;SDS011;7139;48.114;11.442;2023-07-08T13:10:15;6.82;;;5.88;;
14121;SDS011;7139;48.114;11.442;2023-07-08T13:12:45;7.22;;;6.53;;
14121;SDS011;7139;48.114;11.442;2023-07-08T13:15:17;6.80;;;5.57;;
14121;SDS011;7139;48.114;11.442;2023-07-08T13:17:50;7.00;;;5.80;;
14121;SDS011;7139;48.114;11.442;2023-07-08T13:20:17;7.28;;;6.50;;
14121;SDS011;7139;48.114;11.442;2023-07-08T13:22:47;8.20;;;5.72;;
14121;SDS011;7139;48.114;11.442;2023-07-08T13:25:18;7.88;;;5.93;;
14121;SDS011;7139;48.114;11.442;2023-07-08T13:27:54;6.82;;;6.03;;
14121;SDS011;7139;48.114;11.442;2023-07-08T13:30:23;7.97;;;6.38;;
14121;SDS011;7139;48.114;11.442;2023-07-08T13:32:53;7.72;;;6.57;;
14121;SDS011;7139;48.114;11.442;2023-07-08T13:35:20;7.05;;;6.10;;
14121;SDS011;7139;48.114;11.442;2023-07-08T13:37:48;8.05;;;6.35;;
14121;SDS011;7139;48.114;11.442;2023-07-08T13:40:16;6.85;;;6.00;;
14121;SDS011;7139;48.114;11.442;2023-07-08T13:42:46;6.80;;;6.07;;
14121;SDS011;7139;48.114;11.442;2023-07-08T13:45:14;7.53;;;6.28;;
14121;SDS011;7139;48.114;11.442;2023-07-08T13:47:44;6.38;;;5.78;;
14121;SDS011;7139;48.114;11.442;2023-07-08T13:50:15;8.27;;;6.13;;
14121;SDS011;7139;48.114;11.442;2023-07-08T13:52:53;8.55;;;6.20;;
14121;SDS011;7139;48.114;11.442;2023-07-08T13:55:20;7.88;;;5.63;;
14121;SDS011;7139;48.114;11.442;2023-07-08T13:57:55;7.20;;;6.22;;
14121;SDS011;7139;48.114;11.442;2023-07-08T14:00:24;7.07;;;5.43;;
14121;SDS011;7139;48.114;11.442;2023-07-08T14:02:50;6.07;;;5.10;;
14121;SDS011;7139;48.114;11.442;2023-07-08T14:05:19;6.95;;;5.30;;
14121;SDS011;7139;48.114;11.442;2023-07-08T14:07:46;6.18;;;5.57;;
14121;SDS011;7139;48.114;11.442;2023-07-08T14:10:14;5.85;;;5.25;;
14121;SDS011;7139;48.114;11.442;2023-07-08T14:12:41;6.07;;;5.40;;
14121;SDS011;7139;48.114;11.442;2023-07-08T14:15:09;6.93;;;5.55;;
14121;SDS011;7139;48.114;11.442;2023-07-08T14:17:36;9.00;;;5.90;;
14121;SDS011;7139;48.114;11.442;2023-07-08T14:20:07;7.22;;;5.95;;
14121;SDS011;7139;48.114;11.442;2023-07-08T14:22:37;8.75;;;6.10;;
14121;SDS011;7139;48.114;11.442;2023-07-08T14:25:06;7.15;;;5.65;;
14121;SDS011;7139;48.114;11.442;2023-07-08T14:27:35;8.23;;;6.10;;
14121;SDS011;7139;48.114;11.442;2023-07-08T14:30:02;7.22;;;5.95;;
14121;SDS011;7139;48.114;11.442;2023-07-08T14:32:29;6.97;;;5.80;;
14121;SDS011;7139;48.114;11.442;2023-07-08T14:34:58;6.68;;;5.35;;
14121;SDS011;7139;48.114;11.442;2023-07-08T14:37:28;5.43;;;4.93;;
14121;SDS011;7139;48.114;11.442;2023-07-08T14:39:56;6.25;;;5.32;;
14121;SDS011;7139;48.114;11.442;2023-07-08T14:42:24;6.00;;;4.90;;
14121;SDS011;7139;48.114;11.442;2023-07-08T14:44:51;5.53;;;5.03;;
14121;SDS011;7139;48.114;11.442;2023-07-08T14:47:19;6.60;;;5.38;;
14121;SDS011;7139;48.114;11.442;2023-07-08T14:49:46;9.25;;;5.90;;
14121;SDS011;7139;48.114;11.442;2023-07-08T14:52:13;7.63;;;6.03;;
14121;SDS011;7139;48.114;11.442;2023-07-08T14:54:40;7.47;;;5.82;;
14121;SDS011;7139;48.114;11.442;2023-07-08T14:57:09;7.90;;;5.82;;
14121;SDS011;7139;48.114;11.442;2023-07-08T14:59:41;8.80;;;5.97;;